Portada
METAR-TAF:

METAR-TAF

Aeropuertos :

Beatrice Municipal Airport

Beatrice, Nebraska, Estados Unidos

latitud: 40-18N, longitud: 096-45W, altitud: 403 m

Observación

El informe se hizo hace 29 minutos, a las 06:15 UTC
Viento 9 kt del sur-sureste
Temperatura 27°C
Humedad 74%
Presión 1011 hPa
Visibilidad: 16.1 km
Cielo despejado

METAR: KBIE 070615Z AUTO 16009KT 10SM CLR 27/22 A2986 RMK AO2 T02650223

Hora: 01:44 (06:44 UTC)


TAF: falta

Observaciones y pronósticos meteorológicos de más de 4000 aeropuertos (mensajes METAR y TAF).

Los puntos amarillos y rojos representan las estaciones disponibles.

Ponga el ratón en el punto deseado para ver el nombre de la estación.

Haga clic para ver las observaciones y los pronósticos meteorológicos.

Para cambiar el mapa : haga clic en los botones verdes con una cruz de color negro para hacer un zoom, en el botón verde con un guión para alejar o en las flechas verdes para mapas adyacentes.


METAR-TAF: